MMML/MXL METAR and TAF weather

Enter ICAO airport designator
Station Type Date Time Source
MMML METAR 2020/11/25 21:42 UTC NOAA

MMML 252142Z 12006KT 10SM SKC 23/M07 A3001


Station Type Date Time Source
MMML Decoded METAR 2020/11/25 21:42 UTC NOAA

Mexicali International Airport , Mexico (MMML) 32-38N 117-00W
Nov 25, 2020 - 04:42 PM EST / 2020.11.25 2142 UTC
Wind: from the ESE (120 degrees) at 7 MPH (6 KT):0
Visibility: 10 mile(s):0
Sky conditions: clear
Temperature: 73 F (23 C)
Dew Point: 19 F (-7 C)
Relative Humidity: 12%
Pressure (altimeter): 30.01 in. Hg (1016 hPa)
ob: MMML 252142Z 12006KT 10SM SKC 23/M07 A3001
cycle: 21

Station Type Date Time Source
MMML TAF 2020/11/25 18:51 UTC NOAA

TAF MMML 251644Z 2518/2618 12010KT P6SM SKC
FM260400 34005KT P6SM SKC
FM261600 34010KT P6SM SKC

Example: see airport list